Time;durP1;ratioP1;P1;durP2;ratioP2;P2;SDS_P1;SDS_P2;PMS_P1;PMS_P2;Temp;Humidity;BMP_temperature;BMP_pressure;BME280_temperature;BME280_humidity;BME280_pressure;Samples;Min_cycle;Max_cycle;Signal;HPM_P1;HPM_P2
2024/01/15 00:02:55;;;;;;;13.70;7.40;;;;;;;;;;103601;1290;544717;-71
2024/01/15 00:06:33;;;;;;;13.00;6.70;;;;;;;;;;103961;1289;545942;-71
2024/01/15 00:10:10;;;;;;;12.10;6.70;;;;;;;;;;103712;1292;544762;-71
2024/01/15 00:13:47;;;;;;;12.50;6.60;;;;;;;;;;103710;1291;544778;-71
2024/01/15 00:17:25;;;;;;;13.50;7.20;;;;;;;;;;103649;1291;545243;-72
2024/01/15 00:21:02;;;;;;;12.90;7.30;;;;;;;;;;103777;1292;544989;-73
2024/01/15 00:24:40;;;;;;;13.30;7.40;;;;;;;;;;103413;1298;545724;-70
2024/01/15 00:28:17;;;;;;;11.20;6.80;;;;;;;;;;103718;1292;545682;-71
2024/01/15 00:31:54;;;;;;;12.70;6.90;;;;;;;;;;103775;1289;544751;-72
2024/01/15 00:35:31;;;;;;;12.40;7.30;;;;;;;;;;103900;1301;545781;-71
2024/01/15 00:39:10;;;;;;;13.20;8.10;;;;;;;;;;103841;1289;544991;-70
2024/01/15 00:42:46;;;;;;;13.10;7.80;;;;;;;;;;103741;1290;544936;-72
2024/01/15 00:46:26;;;;;;;13.60;7.70;;;;;;;;;;103719;1289;547791;-72
2024/01/15 00:50:01;;;;;;;13.50;8.10;;;;;;;;;;103786;1293;545063;-72
2024/01/15 00:53:39;;;;;;;13.10;8.20;;;;;;;;;;103859;1290;544953;-71
2024/01/15 00:57:16;;;;;;;14.20;9.00;;;;;;;;;;104704;1282;545465;-73
2024/01/15 01:00:55;;;;;;;13.00;7.30;;;;;;;;;;103771;1289;544842;-71
2024/01/15 01:04:31;;;;;;;13.70;7.60;;;;;;;;;;103777;1294;544801;-72
2024/01/15 01:08:09;;;;;;;13.30;8.30;;;;;;;;;;103677;1291;545983;-74
2024/01/15 01:11:46;;;;;;;14.50;8.50;;;;;;;;;;103738;1291;545726;-71
2024/01/15 01:15:24;;;;;;;14.40;8.60;;;;;;;;;;103819;1289;545429;-72
2024/01/15 01:19:07;;;;;;;12.70;7.10;;;;;;;;;;103453;1292;548593;-71
2024/01/15 01:22:39;;;;;;;11.80;6.90;;;;;;;;;;103777;1292;544794;-71
2024/01/15 01:26:22;;;;;;;12.10;6.90;;;;;;;;;;103605;1294;547817;-72
2024/01/15 01:29:51;;;;;;;12.70;7.70;;;;;;;;;;104047;1285;545474;-73
2024/01/15 01:33:31;;;;;;;14.30;8.40;;;;;;;;;;103799;1288;544593;-71
2024/01/15 01:37:05;;;;;;;13.80;8.10;;;;;;;;;;103903;1288;544784;-71
2024/01/15 01:40:46;;;;;;;13.90;7.60;;;;;;;;;;103858;1288;544804;-71
2024/01/15 01:44:24;;;;;;;11.90;6.50;;;;;;;;;;103755;1289;545455;-71
2024/01/15 01:48:01;;;;;;;12.30;7.00;;;;;;;;;;103770;1292;545152;-72
2024/01/15 01:51:39;;;;;;;12.30;6.80;;;;;;;;;;103753;1292;544914;-75
2024/01/15 01:55:16;;;;;;;10.30;5.80;;;;;;;;;;103839;1292;544950;-71
2024/01/15 01:59:00;;;;;;;9.90;5.30;;;;;;;;;;103578;1295;547888;-72
2024/01/15 02:02:31;;;;;;;9.40;5.10;;;;;;;;;;103747;1289;544839;-71
2024/01/15 02:06:09;;;;;;;10.60;6.00;;;;;;;;;;103689;1290;545782;-71
2024/01/15 02:09:46;;;;;;;10.30;5.70;;;;;;;;;;103787;1289;544983;-74
2024/01/15 02:13:24;;;;;;;8.70;4.60;;;;;;;;;;103723;1292;544961;-74
2024/01/15 02:17:01;;;;;;;8.90;4.10;;;;;;;;;;103721;1289;544983;-73
2024/01/15 02:20:38;;;;;;;8.40;4.60;;;;;;;;;;103775;1291;546643;-72
2024/01/15 02:24:15;;;;;;;9.70;5.20;;;;;;;;;;103816;1294;545047;-72
2024/01/15 02:27:53;;;;;;;9.90;5.40;;;;;;;;;;103743;1291;544877;-71
2024/01/15 02:31:30;;;;;;;8.90;4.90;;;;;;;;;;103769;1289;544859;-71
2024/01/15 02:35:04;;;;;;;8.80;4.90;;;;;;;;;;103883;1300;545449;-72
2024/01/15 02:38:45;;;;;;;9.90;5.50;;;;;;;;;;103813;1289;544785;-72
2024/01/15 02:42:26;;;;;;;10.20;5.60;;;;;;;;;;103703;1289;545257;-73
2024/01/15 02:46:00;;;;;;;10.30;5.90;;;;;;;;;;103725;1289;545241;-73
2024/01/15 02:49:39;;;;;;;8.90;4.60;;;;;;;;;;103663;1291;545265;-74
2024/01/15 02:53:15;;;;;;;10.10;5.30;;;;;;;;;;103795;1292;545029;-72
2024/01/15 02:56:53;;;;;;;10.50;6.10;;;;;;;;;;104263;1286;544973;-70
2024/01/15 03:00:30;;;;;;;9.80;5.50;;;;;;;;;;103724;1291;544956;-71
2024/01/15 03:04:09;;;;;;;9.60;5.40;;;;;;;;;;103624;1303;546026;-71
2024/01/15 03:07:45;;;;;;;10.50;5.40;;;;;;;;;;103721;1291;545015;-71
2024/01/15 03:11:23;;;;;;;11.20;5.90;;;;;;;;;;103771;1288;544812;-71
2024/01/15 03:14:56;;;;;;;10.40;5.50;;;;;;;;;;103994;1291;544954;-73
2024/01/15 03:18:38;;;;;;;9.30;5.20;;;;;;;;;;103731;1292;545124;-73
2024/01/15 03:22:15;;;;;;;7.90;3.60;;;;;;;;;;103704;1291;545613;-75
2024/01/15 03:25:53;;;;;;;7.40;3.80;;;;;;;;;;103583;1292;546041;-71
2024/01/15 03:29:30;;;;;;;6.90;3.20;;;;;;;;;;103762;1292;545607;-73
2024/01/15 03:33:04;;;;;;;8.30;4.00;;;;;;;;;;103927;1288;545036;-71
2024/01/15 03:36:44;;;;;;;7.40;3.70;;;;;;;;;;103827;1288;545354;-75
2024/01/15 03:40:22;;;;;;;8.00;3.90;;;;;;;;;;103938;1288;544986;-73
2024/01/15 03:44:00;;;;;;;7.70;3.30;;;;;;;;;;103819;1292;544834;-72
2024/01/15 03:47:38;;;;;;;7.70;3.70;;;;;;;;;;103757;1292;544808;-72
2024/01/15 03:51:15;;;;;;;6.30;2.80;;;;;;;;;;103805;1289;545312;-73
2024/01/15 03:54:53;;;;;;;6.30;2.70;;;;;;;;;;103715;1295;545601;-74
2024/01/15 03:58:31;;;;;;;6.70;2.80;;;;;;;;;;103692;1288;548298;-71
2024/01/15 04:02:07;;;;;;;7.00;2.80;;;;;;;;;;104162;1287;545160;-72
2024/01/15 04:05:44;;;;;;;6.70;3.10;;;;;;;;;;103800;1289;545183;-71
2024/01/15 04:09:22;;;;;;;7.30;3.50;;;;;;;;;;103626;1292;545003;-74
2024/01/15 04:13:01;;;;;;;6.70;2.90;;;;;;;;;;103734;1289;545756;-72
2024/01/15 04:16:37;;;;;;;8.80;3.50;;;;;;;;;;103898;1289;545715;-71
2024/01/15 04:20:14;;;;;;;8.50;3.80;;;;;;;;;;103684;1292;544830;-72
2024/01/15 04:23:52;;;;;;;8.90;4.40;;;;;;;;;;103754;1292;544891;-71
2024/01/15 04:27:29;;;;;;;8.30;4.20;;;;;;;;;;103689;1289;545418;-73
2024/01/15 04:31:07;;;;;;;9.10;4.00;;;;;;;;;;103803;1289;545433;-72
2024/01/15 04:34:44;;;;;;;8.60;4.00;;;;;;;;;;103734;1291;544937;-71
2024/01/15 04:38:22;;;;;;;9.80;4.20;;;;;;;;;;103638;1291;545921;-71
2024/01/15 04:41:59;;;;;;;8.90;4.30;;;;;;;;;;103762;1291;545024;-73
2024/01/15 04:45:37;;;;;;;8.60;4.50;;;;;;;;;;103758;1289;544909;-72
2024/01/15 04:49:14;;;;;;;9.50;4.10;;;;;;;;;;103739;1290;544983;-71
2024/01/15 04:52:51;;;;;;;8.40;3.70;;;;;;;;;;103534;1293;545095;-71
2024/01/15 04:56:29;;;;;;;8.80;4.40;;;;;;;;;;103705;1289;544938;-73
2024/01/15 05:00:13;;;;;;;8.80;4.50;;;;;;;;;;103637;1288;547970;-72
2024/01/15 05:03:44;;;;;;;8.70;4.20;;;;;;;;;;103842;1299;545001;-71
2024/01/15 05:07:22;;;;;;;7.90;3.20;;;;;;;;;;103784;1290;544824;-74
2024/01/15 05:10:59;;;;;;;7.20;3.20;;;;;;;;;;103906;1290;545416;-72
2024/01/15 05:14:37;;;;;;;6.70;3.30;;;;;;;;;;103819;1294;545149;-73
2024/01/15 05:18:14;;;;;;;7.80;3.50;;;;;;;;;;103753;1289;544829;-72
2024/01/15 05:21:52;;;;;;;6.60;3.20;;;;;;;;;;103598;1291;544873;-72
2024/01/15 05:25:29;;;;;;;6.90;3.10;;;;;;;;;;103802;1289;545807;-73
2024/01/15 05:29:23;;;;;;;8.10;3.60;;;;;;;;;;104030;1289;548022;-71
2024/01/15 05:32:43;;;;;;;8.50;3.90;;;;;;;;;;104022;1288;545601;-73
2024/01/15 05:36:21;;;;;;;8.60;3.80;;;;;;;;;;103736;1289;545269;-71
2024/01/15 05:39:59;;;;;;;8.60;3.80;;;;;;;;;;104624;1283;545084;-71
2024/01/15 05:43:32;;;;;;;7.90;3.60;;;;;;;;;;103917;1293;545063;-73
2024/01/15 05:47:13;;;;;;;7.90;3.50;;;;;;;;;;103937;1288;545150;-71
2024/01/15 05:50:51;;;;;;;7.10;2.90;;;;;;;;;;103761;1289;545465;-73
2024/01/15 05:54:28;;;;;;;7.70;3.20;;;;;;;;;;103818;1289;546074;-70
2024/01/15 05:58:06;;;;;;;7.40;3.20;;;;;;;;;;103769;1289;545069;-72
2024/01/15 06:01:43;;;;;;;8.20;3.90;;;;;;;;;;104125;1286;544912;-71
2024/01/15 06:05:21;;;;;;;7.80;3.40;;;;;;;;;;103749;1289;545495;-72
2024/01/15 06:09:05;;;;;;;8.00;3.10;;;;;;;;;;103812;1289;544823;-72
2024/01/15 06:12:35;;;;;;;10.20;6.20;;;;;;;;;;103593;1294;545120;-70
2024/01/15 06:16:14;;;;;;;9.70;5.10;;;;;;;;;;103821;1289;544910;-74
2024/01/15 06:19:51;;;;;;;8.30;3.80;;;;;;;;;;103790;1288;544991;-72
2024/01/15 06:23:28;;;;;;;7.50;3.60;;;;;;;;;;103740;1289;544893;-72
2024/01/15 06:27:08;;;;;;;8.00;3.10;;;;;;;;;;103736;1289;548276;-71
2024/01/15 06:30:42;;;;;;;8.20;3.60;;;;;;;;;;103807;1289;545514;-71
2024/01/15 06:34:20;;;;;;;8.00;3.70;;;;;;;;;;103850;1289;544826;-71
2024/01/15 06:37:58;;;;;;;8.10;3.90;;;;;;;;;;103805;1289;544974;-72
2024/01/15 06:41:43;;;;;;;9.00;4.30;;;;;;;;;;103799;1290;544985;-72
2024/01/15 06:45:13;;;;;;;9.10;4.60;;;;;;;;;;103651;1290;545281;-71
2024/01/15 06:48:50;;;;;;;9.60;4.80;;;;;;;;;;103931;1289;544845;-72
2024/01/15 06:52:28;;;;;;;10.40;4.60;;;;;;;;;;103745;1294;544752;-72
2024/01/15 06:56:06;;;;;;;8.20;3.80;;;;;;;;;;103704;1289;545194;-72
2024/01/15 06:59:42;;;;;;;9.30;4.70;;;;;;;;;;103801;1293;545017;-75
2024/01/15 07:03:17;;;;;;;9.70;4.60;;;;;;;;;;103408;1298;544978;-72
2024/01/15 07:06:58;;;;;;;10.40;4.90;;;;;;;;;;103657;1290;545774;-73
2024/01/15 07:10:36;;;;;;;10.30;4.90;;;;;;;;;;103672;1291;545514;-72
2024/01/15 07:14:13;;;;;;;11.60;7.00;;;;;;;;;;103698;1292;545930;-72
2024/01/15 07:17:51;;;;;;;14.70;7.60;;;;;;;;;;103666;1291;544765;-72
2024/01/15 07:21:27;;;;;;;11.30;6.10;;;;;;;;;;103725;1289;545618;-72
2024/01/15 07:25:01;;;;;;;11.20;4.60;;;;;;;;;;103800;1289;545493;-73
2024/01/15 07:28:42;;;;;;;12.40;5.80;;;;;;;;;;104035;1289;545627;-73
2024/01/15 07:32:20;;;;;;;10.10;5.40;;;;;;;;;;103737;1292;545616;-72
2024/01/15 07:35:53;;;;;;;10.20;4.90;;;;;;;;;;104079;1289;544976;-72
2024/01/15 07:39:35;;;;;;;10.10;4.70;;;;;;;;;;103737;1289;544846;-72
2024/01/15 07:43:12;;;;;;;10.00;3.90;;;;;;;;;;103731;1292;544906;-73
2024/01/15 07:46:50;;;;;;;8.90;4.10;;;;;;;;;;103725;1289;545550;-73
2024/01/15 07:50:28;;;;;;;8.50;3.80;;;;;;;;;;103689;1291;545812;-73
2024/01/15 07:54:06;;;;;;;12.80;5.90;;;;;;;;;;103784;1290;544976;-73
2024/01/15 07:57:42;;;;;;;22.20;10.70;;;;;;;;;;103730;1288;545823;-72
2024/01/15 08:01:19;;;;;;;28.70;13.40;;;;;;;;;;103739;1289;544904;-72
2024/01/15 08:04:58;;;;;;;10.30;4.60;;;;;;;;;;103792;1290;545030;-74
2024/01/15 08:08:35;;;;;;;10.20;4.20;;;;;;;;;;103647;1292;545083;-73
2024/01/15 08:12:09;;;;;;;9.90;4.40;;;;;;;;;;103749;1289;545913;-72
2024/01/15 08:15:50;;;;;;;10.50;4.70;;;;;;;;;;103675;1292;545658;-71
2024/01/15 08:19:27;;;;;;;10.10;4.30;;;;;;;;;;103768;1292;545336;-72
2024/01/15 08:23:04;;;;;;;9.10;4.10;;;;;;;;;;103797;1292;544901;-73
2024/01/15 08:26:42;;;;;;;8.30;3.70;;;;;;;;;;103746;1291;545070;-72
2024/01/15 08:30:21;;;;;;;11.20;4.00;;;;;;;;;;104355;1285;545863;-73
2024/01/15 08:33:57;;;;;;;8.60;3.80;;;;;;;;;;103850;1289;545056;-72
2024/01/15 08:37:34;;;;;;;8.90;3.90;;;;;;;;;;103516;1298;545507;-72
2024/01/15 08:41:11;;;;;;;11.00;4.50;;;;;;;;;;103823;1289;545049;-71
2024/01/15 08:44:50;;;;;;;39.20;19.10;;;;;;;;;;103863;1296;545938;-73
2024/01/15 08:48:27;;;;;;;12.00;5.90;;;;;;;;;;103612;1295;545828;-73
2024/01/15 08:52:04;;;;;;;10.80;5.00;;;;;;;;;;104326;1289;544749;-72
2024/01/15 08:55:44;;;;;;;9.90;4.70;;;;;;;;;;103766;1289;544820;-74
2024/01/15 08:59:24;;;;;;;9.90;4.50;;;;;;;;;;103707;1293;545147;-72
2024/01/15 09:02:57;;;;;;;10.70;4.50;;;;;;;;;;103672;1301;545499;-73
2024/01/15 09:06:34;;;;;;;10.70;4.40;;;;;;;;;;103702;1289;545882;-74
2024/01/15 09:10:11;;;;;;;11.00;4.50;;;;;;;;;;103870;1292;545103;-72
2024/01/15 09:13:45;;;;;;;8.60;3.20;;;;;;;;;;103798;1292;544959;-72
2024/01/15 09:17:28;;;;;;;8.60;3.10;;;;;;;;;;103732;1289;545098;-73
2024/01/15 09:21:05;;;;;;;9.30;3.20;;;;;;;;;;103672;1289;545941;-72
2024/01/15 09:24:41;;;;;;;7.90;3.00;;;;;;;;;;103788;1292;545125;-71
2024/01/15 09:28:15;;;;;;;8.90;3.20;;;;;;;;;;103848;1289;545885;-74
2024/01/15 09:31:56;;;;;;;8.30;3.50;;;;;;;;;;103807;1290;545386;-73
2024/01/15 09:35:33;;;;;;;9.00;3.80;;;;;;;;;;103816;1289;544974;-73
2024/01/15 09:39:11;;;;;;;10.00;3.90;;;;;;;;;;103658;1292;545366;-72
2024/01/15 09:42:54;;;;;;;9.00;3.70;;;;;;;;;;103521;1294;548191;-75
2024/01/15 09:46:26;;;;;;;8.90;3.40;;;;;;;;;;103753;1292;544870;-73
2024/01/15 09:50:04;;;;;;;9.40;4.30;;;;;;;;;;103959;1295;545180;-74
2024/01/15 09:53:41;;;;;;;9.40;3.70;;;;;;;;;;103688;1292;545256;-72
2024/01/15 09:57:19;;;;;;;11.30;3.80;;;;;;;;;;103753;1288;544716;-73
2024/01/15 10:00:56;;;;;;;23.70;21.00;;;;;;;;;;103761;1289;544899;-72
2024/01/15 10:04:34;;;;;;;18.20;10.90;;;;;;;;;;103553;1298;544810;-73
2024/01/15 10:08:11;;;;;;;12.70;6.00;;;;;;;;;;103698;1290;545028;-73
2024/01/15 10:11:49;;;;;;;10.10;4.10;;;;;;;;;;103758;1290;544983;-73
2024/01/15 10:15:26;;;;;;;11.80;5.70;;;;;;;;;;103826;1289;545060;-72
2024/01/15 10:19:00;;;;;;;10.40;4.60;;;;;;;;;;103897;1289;544908;-72
2024/01/15 10:22:42;;;;;;;11.50;5.90;;;;;;;;;;103698;1289;545564;-74
2024/01/15 10:26:24;;;;;;;12.90;5.90;;;;;;;;;;103773;1292;545171;-72
2024/01/15 10:30:00;;;;;;;10.50;3.90;;;;;;;;;;103738;1291;545958;-74
2024/01/15 10:33:34;;;;;;;10.90;4.10;;;;;;;;;;103594;1295;544939;-72
2024/01/15 10:37:10;;;;;;;14.40;7.40;;;;;;;;;;103736;1292;544793;-74
2024/01/15 10:40:52;;;;;;;13.80;6.50;;;;;;;;;;103667;1289;544798;-75
2024/01/15 10:44:25;;;;;;;14.80;7.90;;;;;;;;;;103789;1293;544971;-74
2024/01/15 10:48:04;;;;;;;17.80;9.60;;;;;;;;;;104882;1291;546417;-74
2024/01/15 10:51:41;;;;;;;18.20;9.50;;;;;;;;;;103673;1289;545547;-72
2024/01/15 10:55:25;;;;;;;15.30;7.70;;;;;;;;;;103424;1292;546561;-74
2024/01/15 10:58:56;;;;;;;20.00;11.30;;;;;;;;;;103829;1294;544704;-71
2024/01/15 11:02:35;;;;;;;17.00;7.50;;;;;;;;;;103732;1292;546510;-74
2024/01/15 11:06:19;;;;;;;19.30;11.80;;;;;;;;;;103999;1289;545092;-73
2024/01/15 11:09:49;;;;;;;15.00;7.60;;;;;;;;;;103755;1290;544809;-74
2024/01/15 11:13:30;;;;;;;14.10;6.60;;;;;;;;;;103526;1292;547870;-73
2024/01/15 11:16:59;;;;;;;12.80;5.80;;;;;;;;;;103849;1288;544777;-74
2024/01/15 11:20:40;;;;;;;12.40;5.60;;;;;;;;;;103727;1290;545417;-72
2024/01/15 11:24:54;;;;;;;11.80;5.30;;;;;;;;;;103787;1292;544932;-73
2024/01/15 11:27:52;;;;;;;12.20;5.40;;;;;;;;;;103667;1291;544798;-73
2024/01/15 11:31:39;;;;;;;11.80;5.60;;;;;;;;;;103697;1298;544775;-73
2024/01/15 11:35:10;;;;;;;15.10;5.80;;;;;;;;;;103677;1289;545989;-74
2024/01/15 11:38:48;;;;;;;11.10;5.40;;;;;;;;;;103740;1291;545139;-73
2024/01/15 11:42:24;;;;;;;12.20;6.10;;;;;;;;;;103798;1291;545597;-73
2024/01/15 11:46:03;;;;;;;11.30;5.00;;;;;;;;;;103805;1289;544797;-74
2024/01/15 11:49:58;;;;;;;13.50;5.70;;;;;;;;;;103730;1292;544942;-75
2024/01/15 11:53:36;;;;;;;12.80;5.90;;;;;;;;;;103875;1289;544988;-73
2024/01/15 11:57:03;;;;;;;12.60;6.20;;;;;;;;;;104217;1283;545184;-74
2024/01/15 12:00:32;;;;;;;11.90;5.60;;;;;;;;;;103697;1291;544965;-72
2024/01/15 12:04:10;;;;;;;10.90;4.90;;;;;;;;;;106113;1285;545222;-71
2024/01/15 12:07:49;;;;;;;11.00;5.30;;;;;;;;;;105390;1289;545017;-74
2024/01/15 12:11:26;;;;;;;13.30;6.20;;;;;;;;;;103782;1289;544937;-74
2024/01/15 12:14:58;;;;;;;12.20;5.40;;;;;;;;;;103905;1289;545976;-72
2024/01/15 12:18:40;;;;;;;13.30;5.80;;;;;;;;;;103441;1296;544834;-73
2024/01/15 12:22:17;;;;;;;11.10;5.00;;;;;;;;;;103704;1291;545884;-71
2024/01/15 12:25:55;;;;;;;14.40;6.10;;;;;;;;;;103780;1289;544967;-73
2024/01/15 12:29:32;;;;;;;11.20;5.10;;;;;;;;;;103613;1292;544809;-73
2024/01/15 12:33:09;;;;;;;19.90;13.70;;;;;;;;;;103744;1291;545041;-73
2024/01/15 12:36:47;;;;;;;20.00;14.80;;;;;;;;;;103673;1295;545530;-73
2024/01/15 12:40:25;;;;;;;15.90;10.60;;;;;;;;;;104116;1289;545597;-73
2024/01/15 12:44:02;;;;;;;48.80;27.90;;;;;;;;;;103683;1291;544946;-73
2024/01/15 12:47:39;;;;;;;46.10;27.70;;;;;;;;;;103994;1286;544997;-73
2024/01/15 12:51:16;;;;;;;20.80;11.80;;;;;;;;;;103695;1292;545436;-74
2024/01/15 12:54:56;;;;;;;11.90;6.00;;;;;;;;;;103534;1291;546602;-72
2024/01/15 12:58:32;;;;;;;14.80;7.10;;;;;;;;;;103954;1289;545206;-73
2024/01/15 13:02:09;;;;;;;15.50;7.40;;;;;;;;;;103694;1290;545072;-74
2024/01/15 13:05:47;;;;;;;16.70;7.60;;;;;;;;;;104231;1285;545781;-75
2024/01/15 13:09:24;;;;;;;14.40;7.90;;;;;;;;;;103744;1291;545032;-74
2024/01/15 13:12:58;;;;;;;16.80;9.60;;;;;;;;;;104049;1289;544825;-72
2024/01/15 13:16:41;;;;;;;12.70;6.50;;;;;;;;;;103674;1289;546164;-75
2024/01/15 13:20:17;;;;;;;15.70;9.70;;;;;;;;;;103600;1296;545084;-75
2024/01/15 13:23:54;;;;;;;13.40;6.80;;;;;;;;;;103749;1294;545064;-77
2024/01/15 13:27:32;;;;;;;14.40;6.00;;;;;;;;;;103721;1292;545094;-75
2024/01/15 13:31:08;;;;;;;14.50;7.30;;;;;;;;;;104518;1282;545230;-76
2024/01/15 13:34:43;;;;;;;14.50;5.90;;;;;;;;;;103675;1292;544849;-73
2024/01/15 13:38:24;;;;;;;10.70;4.70;;;;;;;;;;103637;1290;545850;-74
2024/01/15 13:42:01;;;;;;;10.60;4.60;;;;;;;;;;103568;1292;545240;-73
2024/01/15 13:45:38;;;;;;;13.10;5.70;;;;;;;;;;103695;1292;545023;-73
2024/01/15 13:49:16;;;;;;;14.20;6.30;;;;;;;;;;103729;1289;545054;-73
2024/01/15 13:52:54;;;;;;;10.60;4.90;;;;;;;;;;103828;1289;545246;-74
2024/01/15 13:56:37;;;;;;;10.00;4.30;;;;;;;;;;103425;1297;548112;-74
2024/01/15 14:00:11;;;;;;;14.30;6.90;;;;;;;;;;103776;1292;545197;-74
2024/01/15 14:03:46;;;;;;;33.50;17.30;;;;;;;;;;103744;1290;545349;-74
2024/01/15 14:07:23;;;;;;;11.30;5.50;;;;;;;;;;103709;1294;545554;-74
2024/01/15 14:11:01;;;;;;;13.30;6.90;;;;;;;;;;103693;1291;545326;-74
2024/01/15 14:14:39;;;;;;;17.30;8.50;;;;;;;;;;103731;1292;545196;-75
2024/01/15 14:18:17;;;;;;;11.60;5.20;;;;;;;;;;103772;1289;544726;-71
2024/01/15 14:21:53;;;;;;;31.80;16.90;;;;;;;;;;103769;1289;544788;-74
2024/01/15 14:25:31;;;;;;;14.50;7.50;;;;;;;;;;104158;1293;545035;-70
2024/01/15 14:29:09;;;;;;;19.20;10.20;;;;;;;;;;104022;1290;544775;-72
2024/01/15 14:32:46;;;;;;;13.60;8.20;;;;;;;;;;103723;1291;545077;-72
2024/01/15 14:36:23;;;;;;;11.20;5.20;;;;;;;;;;103816;1290;544972;-75
2024/01/15 14:40:00;;;;;;;13.40;7.00;;;;;;;;;;103792;1289;544768;-75
2024/01/15 14:43:37;;;;;;;12.50;5.90;;;;;;;;;;104233;1286;544930;-75
2024/01/15 14:47:16;;;;;;;14.20;7.50;;;;;;;;;;103587;1295;544844;-73
2024/01/15 14:50:53;;;;;;;18.00;10.90;;;;;;;;;;103849;1289;545692;-75
2024/01/15 14:54:30;;;;;;;15.40;7.90;;;;;;;;;;103927;1300;545338;-72
2024/01/15 14:58:04;;;;;;;15.60;8.70;;;;;;;;;;103785;1289;544863;-73
2024/01/15 15:01:45;;;;;;;15.30;6.50;;;;;;;;;;103698;1290;545646;-72
2024/01/15 15:05:22;;;;;;;18.30;7.40;;;;;;;;;;103540;1294;544764;-73
2024/01/15 15:09:00;;;;;;;17.30;7.70;;;;;;;;;;103778;1292;544904;-74
2024/01/15 15:12:38;;;;;;;12.20;5.50;;;;;;;;;;103712;1291;545517;-74
2024/01/15 15:16:16;;;;;;;16.20;8.30;;;;;;;;;;103896;1289;545740;-73
2024/01/15 15:19:53;;;;;;;15.20;6.90;;;;;;;;;;103882;1290;545206;-72
2024/01/15 15:23:27;;;;;;;20.40;8.00;;;;;;;;;;104259;1283;545626;-74
2024/01/15 15:27:08;;;;;;;17.30;7.50;;;;;;;;;;103722;1292;545846;-73
2024/01/15 15:30:45;;;;;;;13.70;6.70;;;;;;;;;;103904;1287;546093;-74
2024/01/15 15:34:22;;;;;;;20.00;9.20;;;;;;;;;;103699;1289;545945;-73
2024/01/15 15:38:00;;;;;;;27.20;11.60;;;;;;;;;;103745;1289;544743;-74
2024/01/15 15:41:37;;;;;;;22.60;11.40;;;;;;;;;;103768;1290;544944;-73
2024/01/15 15:45:15;;;;;;;19.30;8.60;;;;;;;;;;104059;1286;544688;-73
2024/01/15 15:48:52;;;;;;;17.50;8.90;;;;;;;;;;103745;1291;544970;-73
2024/01/15 15:52:30;;;;;;;16.40;8.40;;;;;;;;;;103762;1292;545034;-73
2024/01/15 15:56:07;;;;;;;19.50;9.00;;;;;;;;;;104149;1289;544837;-73
2024/01/15 15:59:44;;;;;;;18.20;8.50;;;;;;;;;;103781;1289;544879;-72
2024/01/15 16:03:22;;;;;;;21.30;10.50;;;;;;;;;;103825;1289;545049;-72
2024/01/15 16:07:01;;;;;;;22.00;11.70;;;;;;;;;;103778;1296;544737;-73
2024/01/15 16:10:38;;;;;;;15.50;9.60;;;;;;;;;;104511;1289;545922;-73
2024/01/15 16:14:14;;;;;;;19.60;11.40;;;;;;;;;;103690;1291;545389;-72
2024/01/15 16:17:52;;;;;;;15.80;8.60;;;;;;;;;;103743;1290;544794;-72
2024/01/15 16:21:30;;;;;;;18.00;9.40;;;;;;;;;;104309;1285;544735;-72
2024/01/15 16:25:06;;;;;;;21.40;12.50;;;;;;;;;;103733;1292;544804;-73
2024/01/15 16:28:45;;;;;;;20.00;11.20;;;;;;;;;;103717;1289;545021;-72
2024/01/15 16:32:22;;;;;;;18.10;9.20;;;;;;;;;;103900;1289;545361;-71
2024/01/15 16:35:59;;;;;;;12.80;6.60;;;;;;;;;;103783;1292;544762;-74
2024/01/15 16:39:40;;;;;;;17.70;10.00;;;;;;;;;;103558;1290;548532;-71
2024/01/15 16:43:15;;;;;;;13.80;7.20;;;;;;;;;;103704;1292;545441;-73
2024/01/15 16:46:52;;;;;;;14.50;7.40;;;;;;;;;;103747;1289;544778;-72
2024/01/15 16:50:29;;;;;;;17.20;8.70;;;;;;;;;;103709;1291;546305;-72
2024/01/15 16:54:07;;;;;;;14.30;7.00;;;;;;;;;;103708;1292;544997;-72
2024/01/15 16:57:50;;;;;;;14.10;7.50;;;;;;;;;;103540;1291;548051;-71
2024/01/15 17:01:22;;;;;;;10.10;5.30;;;;;;;;;;103784;1289;545876;-72
2024/01/15 17:05:00;;;;;;;9.60;3.90;;;;;;;;;;103755;1292;544722;-72
2024/01/15 17:08:33;;;;;;;8.90;4.30;;;;;;;;;;103929;1288;545177;-73
2024/01/15 17:12:14;;;;;;;10.60;3.80;;;;;;;;;;103708;1290;544989;-71
2024/01/15 17:15:47;;;;;;;10.20;4.70;;;;;;;;;;103676;1290;544948;-73
2024/01/15 17:19:29;;;;;;;9.20;3.80;;;;;;;;;;104004;1291;545050;-73
2024/01/15 17:23:06;;;;;;;8.80;4.00;;;;;;;;;;103735;1293;544847;-73
2024/01/15 17:26:44;;;;;;;22.60;12.60;;;;;;;;;;103719;1289;544755;-73
2024/01/15 17:30:21;;;;;;;25.10;12.30;;;;;;;;;;103647;1292;545534;-73
2024/01/15 17:34:00;;;;;;;17.30;8.70;;;;;;;;;;103633;1291;545117;-72
2024/01/15 17:37:36;;;;;;;12.50;6.30;;;;;;;;;;103738;1291;544898;-71
2024/01/15 17:41:14;;;;;;;11.60;6.00;;;;;;;;;;103586;1291;545281;-72
2024/01/15 17:44:51;;;;;;;24.40;13.60;;;;;;;;;;103671;1302;545241;-73
2024/01/15 17:48:31;;;;;;;26.10;11.30;;;;;;;;;;103695;1289;545103;-71
2024/01/15 17:52:08;;;;;;;28.00;11.70;;;;;;;;;;103691;1288;545486;-72
2024/01/15 17:55:49;;;;;;;42.90;16.50;;;;;;;;;;103454;1293;548314;-73
2024/01/15 17:59:20;;;;;;;34.80;12.40;;;;;;;;;;103761;1290;545096;-74
2024/01/15 18:02:59;;;;;;;33.20;13.70;;;;;;;;;;103577;1291;545093;-72
2024/01/15 18:06:36;;;;;;;43.90;20.70;;;;;;;;;;103776;1292;544985;-72
2024/01/15 18:10:13;;;;;;;48.60;21.30;;;;;;;;;;103665;1291;544742;-72
2024/01/15 18:13:50;;;;;;;63.60;26.20;;;;;;;;;;103851;1292;544644;-76
2024/01/15 18:17:29;;;;;;;52.00;22.50;;;;;;;;;;103764;1295;545424;-74
2024/01/15 18:21:06;;;;;;;39.40;16.90;;;;;;;;;;103762;1289;544985;-72
2024/01/15 18:24:49;;;;;;;32.60;15.70;;;;;;;;;;103617;1293;547954;-73
2024/01/15 18:28:21;;;;;;;25.70;12.50;;;;;;;;;;103793;1289;544764;-74
2024/01/15 18:32:14;;;;;;;43.50;17.60;;;;;;;;;;103797;1289;548108;-73
2024/01/15 18:35:36;;;;;;;23.70;10.60;;;;;;;;;;103830;1292;544823;-73
2024/01/15 18:39:16;;;;;;;22.10;9.10;;;;;;;;;;103831;1290;545117;-71
2024/01/15 18:42:50;;;;;;;19.60;9.50;;;;;;;;;;103857;1291;545419;-70
2024/01/15 18:46:28;;;;;;;39.60;16.50;;;;;;;;;;103784;1289;544982;-72
2024/01/15 18:50:05;;;;;;;33.30;19.50;;;;;;;;;;104540;1282;544799;-73
2024/01/15 18:53:42;;;;;;;30.30;16.00;;;;;;;;;;103773;1292;544979;-73
2024/01/15 18:57:27;;;;;;;18.50;10.80;;;;;;;;;;103619;1290;547793;-71
2024/01/15 19:00:57;;;;;;;14.20;7.70;;;;;;;;;;104028;1291;545769;-71
2024/01/15 19:04:35;;;;;;;18.40;9.90;;;;;;;;;;103737;1291;544986;-72
2024/01/15 19:08:13;;;;;;;20.00;9.80;;;;;;;;;;103718;1289;545046;-72
2024/01/15 19:11:50;;;;;;;19.20;9.40;;;;;;;;;;103751;1289;545233;-72
2024/01/15 19:15:27;;;;;;;15.10;7.20;;;;;;;;;;103746;1292;545403;-72
2024/01/15 19:19:05;;;;;;;14.70;7.80;;;;;;;;;;103784;1292;544954;-73
2024/01/15 19:22:42;;;;;;;16.50;7.70;;;;;;;;;;103818;1290;545102;-73
2024/01/15 19:26:21;;;;;;;13.70;6.50;;;;;;;;;;103807;1289;544929;-73
2024/01/15 19:29:58;;;;;;;22.80;11.30;;;;;;;;;;103887;1288;545161;-72
2024/01/15 19:33:41;;;;;;;30.00;15.20;;;;;;;;;;103574;1295;547808;-72
2024/01/15 19:37:12;;;;;;;19.80;10.50;;;;;;;;;;103859;1291;545383;-71
2024/01/15 19:40:49;;;;;;;18.70;9.60;;;;;;;;;;103685;1291;545036;-71
2024/01/15 19:44:27;;;;;;;14.60;7.10;;;;;;;;;;103720;1292;544772;-72
2024/01/15 19:48:04;;;;;;;22.90;11.10;;;;;;;;;;104702;1280;544898;-71
2024/01/15 19:51:43;;;;;;;17.80;9.00;;;;;;;;;;103853;1290;546320;-73
2024/01/15 19:55:19;;;;;;;22.20;9.70;;;;;;;;;;103793;1289;545093;-74
2024/01/15 19:58:57;;;;;;;31.60;11.70;;;;;;;;;;103796;1289;545224;-72
2024/01/15 20:02:32;;;;;;;17.50;7.70;;;;;;;;;;103722;1295;545866;-73
2024/01/15 20:06:14;;;;;;;17.30;8.00;;;;;;;;;;103726;1293;544965;-72
2024/01/15 20:09:55;;;;;;;22.20;10.80;;;;;;;;;;103598;1290;550861;-71
2024/01/15 20:13:26;;;;;;;15.10;6.50;;;;;;;;;;104149;1286;545084;-73
2024/01/15 20:17:05;;;;;;;16.20;6.70;;;;;;;;;;103749;1289;545205;-73
2024/01/15 20:20:42;;;;;;;15.00;6.60;;;;;;;;;;103887;1292;545338;-73
2024/01/15 20:24:21;;;;;;;16.70;7.60;;;;;;;;;;103700;1293;544920;-73
2024/01/15 20:27:57;;;;;;;19.70;9.00;;;;;;;;;;103811;1289;544737;-73
2024/01/15 20:31:34;;;;;;;24.90;10.90;;;;;;;;;;103683;1294;544784;-72
2024/01/15 20:35:11;;;;;;;14.00;6.20;;;;;;;;;;103846;1295;544853;-73
2024/01/15 20:38:48;;;;;;;35.50;15.80;;;;;;;;;;104034;1290;544724;-73
2024/01/15 20:42:27;;;;;;;64.20;28.10;;;;;;;;;;103748;1302;544972;-73
2024/01/15 20:46:06;;;;;;;71.60;28.60;;;;;;;;;;103651;1290;545598;-73
2024/01/15 20:49:42;;;;;;;47.20;20.30;;;;;;;;;;103746;1292;545265;-72